sensor_id;sensor_type;location;lat;lon;timestamp;temperature;humidity
70456;DHT22;57916;51.996;5.180;2023-02-26T00:01:22;6.00;63.90
70456;DHT22;57916;51.996;5.180;2023-02-26T00:03:51;6.00;63.80
70456;DHT22;57916;51.996;5.180;2023-02-26T00:06:19;6.10;63.80
70456;DHT22;57916;51.996;5.180;2023-02-26T00:08:46;6.10;63.60
70456;DHT22;57916;51.996;5.180;2023-02-26T00:11:13;6.20;63.40
70456;DHT22;57916;51.996;5.180;2023-02-26T00:13:43;6.20;63.30
70456;DHT22;57916;51.996;5.180;2023-02-26T00:16:27;6.20;63.50
70456;DHT22;57916;51.996;5.180;2023-02-26T00:18:55;6.20;63.00
70456;DHT22;57916;51.996;5.180;2023-02-26T00:21:23;6.30;62.60
70456;DHT22;57916;51.996;5.180;2023-02-26T00:23:51;6.30;62.60
70456;DHT22;57916;51.996;5.180;2023-02-26T00:26:19;6.30;62.70
70456;DHT22;57916;51.996;5.180;2023-02-26T00:28:47;6.30;62.40
70456;DHT22;57916;51.996;5.180;2023-02-26T00:31:14;6.40;62.30
70456;DHT22;57916;51.996;5.180;2023-02-26T00:33:43;6.40;63.10
70456;DHT22;57916;51.996;5.180;2023-02-26T00:36:20;6.40;62.10
70456;DHT22;57916;51.996;5.180;2023-02-26T00:41:42;6.50;62.10
70456;DHT22;57916;51.996;5.180;2023-02-26T00:44:10;6.50;61.60
70456;DHT22;57916;51.996;5.180;2023-02-26T00:47:08;6.50;61.20
70456;DHT22;57916;51.996;5.180;2023-02-26T00:50:04;6.50;61.00
70456;DHT22;57916;51.996;5.180;2023-02-26T00:52:40;6.50;60.70
70456;DHT22;57916;51.996;5.180;2023-02-26T00:55:08;6.50;60.50
70456;DHT22;57916;51.996;5.180;2023-02-26T00:57:35;6.40;60.20
70456;DHT22;57916;51.996;5.180;2023-02-26T01:00:04;6.40;59.60
70456;DHT22;57916;51.996;5.180;2023-02-26T01:02:34;6.40;59.40
70456;DHT22;57916;51.996;5.180;2023-02-26T01:05:02;6.40;59.00
70456;DHT22;57916;51.996;5.180;2023-02-26T01:07:33;6.40;58.90
70456;DHT22;57916;51.996;5.180;2023-02-26T01:10:03;6.40;58.80
70456;DHT22;57916;51.996;5.180;2023-02-26T01:12:31;6.40;58.70
70456;DHT22;57916;51.996;5.180;2023-02-26T01:14:58;6.40;58.60
70456;DHT22;57916;51.996;5.180;2023-02-26T01:17:31;6.40;58.50
70456;DHT22;57916;51.996;5.180;2023-02-26T01:23:06;6.30;58.20
70456;DHT22;57916;51.996;5.180;2023-02-26T01:25:40;6.30;58.00
70456;DHT22;57916;51.996;5.180;2023-02-26T01:28:07;6.30;58.10
70456;DHT22;57916;51.996;5.180;2023-02-26T01:30:35;6.30;58.30
70456;DHT22;57916;51.996;5.180;2023-02-26T01:35:53;6.30;57.90
70456;DHT22;57916;51.996;5.180;2023-02-26T01:38:52;6.20;58.00
70456;DHT22;57916;51.996;5.180;2023-02-26T01:41:30;6.20;58.10
70456;DHT22;57916;51.996;5.180;2023-02-26T01:44:12;6.20;58.40
70456;DHT22;57916;51.996;5.180;2023-02-26T01:47:12;6.10;58.50
70456;DHT22;57916;51.996;5.180;2023-02-26T01:49:41;6.10;58.50
70456;DHT22;57916;51.996;5.180;2023-02-26T01:54:59;6.10;58.10
70456;DHT22;57916;51.996;5.180;2023-02-26T01:57:26;6.10;58.20
70456;DHT22;57916;51.996;5.180;2023-02-26T01:59:53;6.10;58.40
70456;DHT22;57916;51.996;5.180;2023-02-26T02:02:23;6.10;58.40
70456;DHT22;57916;51.996;5.180;2023-02-26T02:04:51;6.10;58.40
70456;DHT22;57916;51.996;5.180;2023-02-26T02:07:18;6.10;59.10
70456;DHT22;57916;51.996;5.180;2023-02-26T02:09:46;6.00;58.00
70456;DHT22;57916;51.996;5.180;2023-02-26T02:15:03;6.00;58.40
70456;DHT22;57916;51.996;5.180;2023-02-26T02:17:49;6.00;58.10
70456;DHT22;57916;51.996;5.180;2023-02-26T02:28:15;5.80;58.00
70456;DHT22;57916;51.996;5.180;2023-02-26T02:33:27;5.80;58.00
70456;DHT22;57916;51.996;5.180;2023-02-26T02:36:06;5.80;57.80
70456;DHT22;57916;51.996;5.180;2023-02-26T02:38:41;5.80;57.70
70456;DHT22;57916;51.996;5.180;2023-02-26T02:41:33;5.70;57.80
70456;DHT22;57916;51.996;5.180;2023-02-26T02:44:03;5.70;57.60
70456;DHT22;57916;51.996;5.180;2023-02-26T02:46:32;5.70;57.40
70456;DHT22;57916;51.996;5.180;2023-02-26T02:49:03;5.70;57.60
70456;DHT22;57916;51.996;5.180;2023-02-26T02:51:42;5.60;57.40
70456;DHT22;57916;51.996;5.180;2023-02-26T02:54:15;5.60;57.60
70456;DHT22;57916;51.996;5.180;2023-02-26T02:59:24;5.50;57.50
70456;DHT22;57916;51.996;5.180;2023-02-26T03:02:30;5.50;57.60
70456;DHT22;57916;51.996;5.180;2023-02-26T03:04:53;5.40;57.40
70456;DHT22;57916;51.996;5.180;2023-02-26T03:07:21;5.50;57.70
70456;DHT22;57916;51.996;5.180;2023-02-26T03:09:50;5.40;57.40
70456;DHT22;57916;51.996;5.180;2023-02-26T03:12:17;5.40;57.10
70456;DHT22;57916;51.996;5.180;2023-02-26T03:14:45;5.40;57.00
70456;DHT22;57916;51.996;5.180;2023-02-26T03:25:44;5.30;57.20
70456;DHT22;57916;51.996;5.180;2023-02-26T03:28:40;5.20;57.00
70456;DHT22;57916;51.996;5.180;2023-02-26T03:31:30;5.20;57.00
70456;DHT22;57916;51.996;5.180;2023-02-26T03:34:11;5.20;57.10
70456;DHT22;57916;51.996;5.180;2023-02-26T03:36:45;5.20;57.00
70456;DHT22;57916;51.996;5.180;2023-02-26T03:40:01;5.10;57.00
70456;DHT22;57916;51.996;5.180;2023-02-26T03:42:31;5.10;56.70
70456;DHT22;57916;51.996;5.180;2023-02-26T03:45:28;5.10;56.50
70456;DHT22;57916;51.996;5.180;2023-02-26T03:47:57;5.10;56.60
70456;DHT22;57916;51.996;5.180;2023-02-26T03:50:35;5.10;56.60
70456;DHT22;57916;51.996;5.180;2023-02-26T03:53:37;5.10;56.60
70456;DHT22;57916;51.996;5.180;2023-02-26T03:56:14;5.10;56.30
70456;DHT22;57916;51.996;5.180;2023-02-26T03:58:57;5.10;56.20
70456;DHT22;57916;51.996;5.180;2023-02-26T04:07:10;5.00;56.90
70456;DHT22;57916;51.996;5.180;2023-02-26T04:09:49;5.00;56.00
70456;DHT22;57916;51.996;5.180;2023-02-26T04:12:22;5.00;56.10
70456;DHT22;57916;51.996;5.180;2023-02-26T04:14:53;5.00;55.80
70456;DHT22;57916;51.996;5.180;2023-02-26T04:17:21;5.00;55.60
70456;DHT22;57916;51.996;5.180;2023-02-26T04:19:48;5.00;55.80
70456;DHT22;57916;51.996;5.180;2023-02-26T04:22:15;5.00;55.60
70456;DHT22;57916;51.996;5.180;2023-02-26T04:24:41;5.00;55.30
70456;DHT22;57916;51.996;5.180;2023-02-26T04:27:09;4.90;55.20
70456;DHT22;57916;51.996;5.180;2023-02-26T04:29:35;5.00;55.20
70456;DHT22;57916;51.996;5.180;2023-02-26T04:32:03;5.00;55.20
70456;DHT22;57916;51.996;5.180;2023-02-26T04:34:30;5.00;55.20
70456;DHT22;57916;51.996;5.180;2023-02-26T04:36:58;5.00;55.10
70456;DHT22;57916;51.996;5.180;2023-02-26T04:39:25;5.00;55.20
70456;DHT22;57916;51.996;5.180;2023-02-26T04:41:52;5.00;55.20
70456;DHT22;57916;51.996;5.180;2023-02-26T04:44:19;4.90;55.20
70456;DHT22;57916;51.996;5.180;2023-02-26T04:46:46;4.80;55.20
70456;DHT22;57916;51.996;5.180;2023-02-26T04:49:13;4.80;55.40
70456;DHT22;57916;51.996;5.180;2023-02-26T04:51:42;4.80;55.20
70456;DHT22;57916;51.996;5.180;2023-02-26T04:54:11;4.80;55.30
70456;DHT22;57916;51.996;5.180;2023-02-26T04:56:38;4.70;55.50
70456;DHT22;57916;51.996;5.180;2023-02-26T04:59:05;4.70;55.50
70456;DHT22;57916;51.996;5.180;2023-02-26T05:01:33;4.70;55.70
70456;DHT22;57916;51.996;5.180;2023-02-26T05:04:00;4.60;55.40
70456;DHT22;57916;51.996;5.180;2023-02-26T05:06:28;4.60;55.60
70456;DHT22;57916;51.996;5.180;2023-02-26T05:08:55;4.60;55.60
70456;DHT22;57916;51.996;5.180;2023-02-26T05:11:22;4.60;55.60
70456;DHT22;57916;51.996;5.180;2023-02-26T05:13:49;4.60;55.60
70456;DHT22;57916;51.996;5.180;2023-02-26T05:16:16;4.60;55.90
70456;DHT22;57916;51.996;5.180;2023-02-26T05:18:43;4.60;55.80
70456;DHT22;57916;51.996;5.180;2023-02-26T05:21:10;4.60;56.10
70456;DHT22;57916;51.996;5.180;2023-02-26T05:23:37;4.60;55.90
70456;DHT22;57916;51.996;5.180;2023-02-26T05:26:04;4.60;55.70
70456;DHT22;57916;51.996;5.180;2023-02-26T05:28:31;4.60;55.90
70456;DHT22;57916;51.996;5.180;2023-02-26T05:30:59;4.70;56.30
70456;DHT22;57916;51.996;5.180;2023-02-26T05:33:26;4.70;55.80
70456;DHT22;57916;51.996;5.180;2023-02-26T05:35:53;4.70;55.40
70456;DHT22;57916;51.996;5.180;2023-02-26T05:38:20;4.70;55.50
70456;DHT22;57916;51.996;5.180;2023-02-26T05:40:47;4.70;55.20
70456;DHT22;57916;51.996;5.180;2023-02-26T05:43:14;4.70;55.00
70456;DHT22;57916;51.996;5.180;2023-02-26T05:45:41;4.70;54.90
70456;DHT22;57916;51.996;5.180;2023-02-26T05:48:07;4.60;54.90
70456;DHT22;57916;51.996;5.180;2023-02-26T05:50:36;4.60;54.80
70456;DHT22;57916;51.996;5.180;2023-02-26T05:53:03;4.50;54.70
70456;DHT22;57916;51.996;5.180;2023-02-26T05:55:30;4.50;55.30
70456;DHT22;57916;51.996;5.180;2023-02-26T05:57:57;4.50;55.50
70456;DHT22;57916;51.996;5.180;2023-02-26T06:00:24;4.50;55.40
70456;DHT22;57916;51.996;5.180;2023-02-26T06:02:51;4.40;55.20
70456;DHT22;57916;51.996;5.180;2023-02-26T06:05:18;4.40;55.40
70456;DHT22;57916;51.996;5.180;2023-02-26T06:07:45;4.40;55.20
70456;DHT22;57916;51.996;5.180;2023-02-26T06:10:13;4.30;55.20
70456;DHT22;57916;51.996;5.180;2023-02-26T06:12:40;4.30;55.60
70456;DHT22;57916;51.996;5.180;2023-02-26T06:15:07;4.30;55.50
70456;DHT22;57916;51.996;5.180;2023-02-26T06:17:35;4.30;55.40
70456;DHT22;57916;51.996;5.180;2023-02-26T06:20:06;4.20;55.70
70456;DHT22;57916;51.996;5.180;2023-02-26T06:22:33;4.20;55.80
70456;DHT22;57916;51.996;5.180;2023-02-26T06:24:59;4.20;55.70
70456;DHT22;57916;51.996;5.180;2023-02-26T06:27:26;4.20;55.70
70456;DHT22;57916;51.996;5.180;2023-02-26T06:29:53;4.20;55.80
70456;DHT22;57916;51.996;5.180;2023-02-26T06:32:20;4.20;56.10
70456;DHT22;57916;51.996;5.180;2023-02-26T06:34:47;4.20;56.30
70456;DHT22;57916;51.996;5.180;2023-02-26T06:37:13;4.20;56.20
70456;DHT22;57916;51.996;5.180;2023-02-26T06:39:41;4.20;56.10
70456;DHT22;57916;51.996;5.180;2023-02-26T06:42:07;4.20;56.10
70456;DHT22;57916;51.996;5.180;2023-02-26T06:44:34;4.20;56.10
70456;DHT22;57916;51.996;5.180;2023-02-26T06:47:01;4.10;55.90
70456;DHT22;57916;51.996;5.180;2023-02-26T06:49:28;4.10;56.10
70456;DHT22;57916;51.996;5.180;2023-02-26T06:51:55;4.20;56.70
70456;DHT22;57916;51.996;5.180;2023-02-26T06:54:22;4.10;56.30
70456;DHT22;57916;51.996;5.180;2023-02-26T06:56:49;4.20;56.20
70456;DHT22;57916;51.996;5.180;2023-02-26T06:59:15;4.20;56.20
70456;DHT22;57916;51.996;5.180;2023-02-26T07:01:42;4.30;56.20
70456;DHT22;57916;51.996;5.180;2023-02-26T07:04:09;4.30;55.80
70456;DHT22;57916;51.996;5.180;2023-02-26T07:06:36;4.30;55.90
70456;DHT22;57916;51.996;5.180;2023-02-26T07:09:03;4.30;56.00
70456;DHT22;57916;51.996;5.180;2023-02-26T07:11:30;4.30;57.10
70456;DHT22;57916;51.996;5.180;2023-02-26T07:13:57;4.30;56.00
70456;DHT22;57916;51.996;5.180;2023-02-26T07:16:23;4.40;56.50
70456;DHT22;57916;51.996;5.180;2023-02-26T07:18:51;4.40;56.30
70456;DHT22;57916;51.996;5.180;2023-02-26T07:21:18;4.50;56.40
70456;DHT22;57916;51.996;5.180;2023-02-26T07:23:45;4.50;56.10
70456;DHT22;57916;51.996;5.180;2023-02-26T07:26:11;4.60;56.00
70456;DHT22;57916;51.996;5.180;2023-02-26T07:28:38;4.60;57.00
70456;DHT22;57916;51.996;5.180;2023-02-26T07:31:05;4.60;55.90
70456;DHT22;57916;51.996;5.180;2023-02-26T07:33:32;4.70;56.00
70456;DHT22;57916;51.996;5.180;2023-02-26T07:36:00;4.70;56.10
70456;DHT22;57916;51.996;5.180;2023-02-26T07:38:27;4.70;56.30
70456;DHT22;57916;51.996;5.180;2023-02-26T07:40:54;4.80;56.20
70456;DHT22;57916;51.996;5.180;2023-02-26T07:43:23;4.80;56.40
70456;DHT22;57916;51.996;5.180;2023-02-26T07:45:50;4.80;56.40
70456;DHT22;57916;51.996;5.180;2023-02-26T07:48:18;4.90;56.60
70456;DHT22;57916;51.996;5.180;2023-02-26T07:50:46;5.00;56.70
70456;DHT22;57916;51.996;5.180;2023-02-26T07:53:12;5.10;56.80
70456;DHT22;57916;51.996;5.180;2023-02-26T07:55:39;5.20;56.80
70456;DHT22;57916;51.996;5.180;2023-02-26T07:58:06;5.40;57.00
70456;DHT22;57916;51.996;5.180;2023-02-26T08:00:33;5.60;56.50
70456;DHT22;57916;51.996;5.180;2023-02-26T08:03:00;5.90;56.20
70456;DHT22;57916;51.996;5.180;2023-02-26T08:05:27;6.10;55.40
70456;DHT22;57916;51.996;5.180;2023-02-26T08:07:55;6.40;54.80
70456;DHT22;57916;51.996;5.180;2023-02-26T08:10:23;6.70;54.10
70456;DHT22;57916;51.996;5.180;2023-02-26T08:12:49;6.90;53.50
70456;DHT22;57916;51.996;5.180;2023-02-26T08:15:16;7.10;52.80
70456;DHT22;57916;51.996;5.180;2023-02-26T08:17:43;7.30;52.20
70456;DHT22;57916;51.996;5.180;2023-02-26T08:20:11;7.30;51.70
70456;DHT22;57916;51.996;5.180;2023-02-26T08:22:40;7.50;51.60
70456;DHT22;57916;51.996;5.180;2023-02-26T08:25:07;7.60;51.40
70456;DHT22;57916;51.996;5.180;2023-02-26T08:27:34;7.70;51.00
70456;DHT22;57916;51.996;5.180;2023-02-26T08:30:02;7.80;50.90
70456;DHT22;57916;51.996;5.180;2023-02-26T08:32:28;7.80;50.50
70456;DHT22;57916;51.996;5.180;2023-02-26T08:34:55;7.90;50.50
70456;DHT22;57916;51.996;5.180;2023-02-26T08:37:22;7.90;50.30
70456;DHT22;57916;51.996;5.180;2023-02-26T08:39:50;8.00;50.80
70456;DHT22;57916;51.996;5.180;2023-02-26T08:42:18;8.20;50.80
70456;DHT22;57916;51.996;5.180;2023-02-26T08:44:46;8.40;50.70
70456;DHT22;57916;51.996;5.180;2023-02-26T08:47:13;8.60;49.80
70456;DHT22;57916;51.996;5.180;2023-02-26T08:49:50;8.60;49.30
70456;DHT22;57916;51.996;5.180;2023-02-26T08:52:16;8.60;49.10
70456;DHT22;57916;51.996;5.180;2023-02-26T10:01:11;9.80;43.00
70456;DHT22;57916;51.996;5.180;2023-02-26T10:06:56;9.70;42.40
70456;DHT22;57916;51.996;5.180;2023-02-26T10:10:02;9.60;42.70
70456;DHT22;57916;51.996;5.180;2023-02-26T10:12:34;9.70;42.90
70456;DHT22;57916;51.996;5.180;2023-02-26T10:15:23;10.00;42.50
70456;DHT22;57916;51.996;5.180;2023-02-26T10:20:33;10.20;41.80
70456;DHT22;57916;51.996;5.180;2023-02-26T10:23:07;10.30;42.90
70456;DHT22;57916;51.996;5.180;2023-02-26T10:25:42;10.20;41.10
70456;DHT22;57916;51.996;5.180;2023-02-26T10:28:34;9.90;41.20
70456;DHT22;57916;51.996;5.180;2023-02-26T10:31:35;9.60;41.30
70456;DHT22;57916;51.996;5.180;2023-02-26T10:40:50;9.70;42.20
